sensor_id;sensor_type;location;lat;lon;timestamp;pressure;altitude;pressure_sealevel;temperature;humidity
75852;BME280;64500;52.632;20.656;2022-12-18T00:01:37;101772.80;;;-2.25;76.10
75852;BME280;64500;52.632;20.656;2022-12-18T00:04:06;101779.63;;;-2.27;76.00
75852;BME280;64500;52.632;20.656;2022-12-18T00:06:35;101783.92;;;-2.31;76.15
75852;BME280;64500;52.632;20.656;2022-12-18T00:09:02;101787.05;;;-2.34;76.20
75852;BME280;64500;52.632;20.656;2022-12-18T00:11:30;101791.34;;;-2.35;76.22
75852;BME280;64500;52.632;20.656;2022-12-18T00:13:59;101797.44;;;-2.34;76.48
75852;BME280;64500;52.632;20.656;2022-12-18T00:16:28;101798.67;;;-2.34;76.45
75852;BME280;64500;52.632;20.656;2022-12-18T00:18:57;101804.48;;;-2.31;76.55
75852;BME280;64500;52.632;20.656;2022-12-18T00:21:24;101807.95;;;-2.28;76.49
75852;BME280;64500;52.632;20.656;2022-12-18T00:23:52;101809.15;;;-2.25;76.61
75852;BME280;64500;52.632;20.656;2022-12-18T00:26:28;101803.96;;;-2.25;76.27
75852;BME280;64500;52.632;20.656;2022-12-18T00:28:58;101808.21;;;-2.26;76.44
75852;BME280;64500;52.632;20.656;2022-12-18T00:31:26;101806.20;;;-2.25;76.47
75852;BME280;64500;52.632;20.656;2022-12-18T00:33:55;101810.00;;;-2.25;76.30
75852;BME280;64500;52.632;20.656;2022-12-18T00:36:29;101816.06;;;-2.26;76.36
75852;BME280;64500;52.632;20.656;2022-12-18T00:38:56;101820.48;;;-2.27;76.50
75852;BME280;64500;52.632;20.656;2022-12-18T00:41:23;101826.79;;;-2.29;76.41
75852;BME280;64500;52.632;20.656;2022-12-18T00:44:12;101828.02;;;-2.32;76.54
75852;BME280;64500;52.632;20.656;2022-12-18T00:46:40;101831.57;;;-2.34;76.74
75852;BME280;64500;52.632;20.656;2022-12-18T00:49:07;101832.45;;;-2.34;76.59
75852;BME280;64500;52.632;20.656;2022-12-18T00:51:35;101838.72;;;-2.33;76.71
75852;BME280;64500;52.632;20.656;2022-12-18T00:54:02;101846.13;;;-2.30;76.81
75852;BME280;64500;52.632;20.656;2022-12-18T00:56:29;101849.31;;;-2.29;76.69
75852;BME280;64500;52.632;20.656;2022-12-18T00:58:56;101859.08;;;-2.27;76.74
75852;BME280;64500;52.632;20.656;2022-12-18T01:01:23;101862.08;;;-2.27;76.70
75852;BME280;64500;52.632;20.656;2022-12-18T01:03:50;101864.43;;;-2.25;76.75
75852;BME280;64500;52.632;20.656;2022-12-18T01:06:18;101864.30;;;-2.24;76.82
75852;BME280;64500;52.632;20.656;2022-12-18T01:08:45;101864.03;;;-2.26;76.63
75852;BME280;64500;52.632;20.656;2022-12-18T01:11:15;101867.71;;;-2.28;76.73
75852;BME280;64500;52.632;20.656;2022-12-18T01:13:42;101871.62;;;-2.30;76.68
75852;BME280;64500;52.632;20.656;2022-12-18T01:16:14;101874.45;;;-2.32;76.50
75852;BME280;64500;52.632;20.656;2022-12-18T01:18:42;101879.83;;;-2.35;76.57
75852;BME280;64500;52.632;20.656;2022-12-18T01:21:11;101883.40;;;-2.36;76.51
75852;BME280;64500;52.632;20.656;2022-12-18T01:23:38;101882.02;;;-2.36;76.63
75852;BME280;64500;52.632;20.656;2022-12-18T01:26:11;101884.63;;;-2.36;76.59
75852;BME280;64500;52.632;20.656;2022-12-18T01:28:39;101887.50;;;-2.34;76.69
75852;BME280;64500;52.632;20.656;2022-12-18T01:31:14;101890.50;;;-2.33;76.67
75852;BME280;64500;52.632;20.656;2022-12-18T01:33:43;101894.42;;;-2.31;76.77
75852;BME280;64500;52.632;20.656;2022-12-18T01:36:34;101900.53;;;-2.30;76.62
75852;BME280;64500;52.632;20.656;2022-12-18T01:39:05;101904.63;;;-2.31;76.72
75852;BME280;64500;52.632;20.656;2022-12-18T01:41:33;101913.57;;;-2.32;76.79
75852;BME280;64500;52.632;20.656;2022-12-18T01:44:53;101924.08;;;-2.33;76.76
75852;BME280;64500;52.632;20.656;2022-12-18T01:52:45;101930.10;;;-2.37;76.50
75852;BME280;64500;52.632;20.656;2022-12-18T01:55:17;101935.30;;;-2.37;76.39
75852;BME280;64500;52.632;20.656;2022-12-18T01:57:44;101938.36;;;-2.38;76.41
75852;BME280;64500;52.632;20.656;2022-12-18T02:00:18;101941.50;;;-2.38;76.61
75852;BME280;64500;52.632;20.656;2022-12-18T02:02:46;101940.47;;;-2.37;76.65
75852;BME280;64500;52.632;20.656;2022-12-18T02:08:21;101945.74;;;-2.36;76.74
75852;BME280;64500;52.632;20.656;2022-12-18T02:13:41;101950.12;;;-2.35;76.80
75852;BME280;64500;52.632;20.656;2022-12-18T02:19:40;101961.34;;;-2.33;76.97
75852;BME280;64500;52.632;20.656;2022-12-18T02:28:07;101978.50;;;-2.26;77.02
75852;BME280;64500;52.632;20.656;2022-12-18T02:30:39;101976.49;;;-2.25;76.84
75852;BME280;64500;52.632;20.656;2022-12-18T02:33:07;101980.46;;;-2.21;76.93
75852;BME280;64500;52.632;20.656;2022-12-18T02:35:36;101979.56;;;-2.19;77.06
75852;BME280;64500;52.632;20.656;2022-12-18T02:38:04;101987.52;;;-2.19;76.81
75852;BME280;64500;52.632;20.656;2022-12-18T02:40:32;101989.99;;;-2.18;76.86
75852;BME280;64500;52.632;20.656;2022-12-18T02:43:07;101995.66;;;-2.19;76.65
75852;BME280;64500;52.632;20.656;2022-12-18T02:45:35;101995.50;;;-2.19;76.53
75852;BME280;64500;52.632;20.656;2022-12-18T02:48:02;101992.61;;;-2.18;76.93
75852;BME280;64500;52.632;20.656;2022-12-18T02:50:34;101987.98;;;-2.17;76.70
75852;BME280;64500;52.632;20.656;2022-12-18T02:53:18;101990.81;;;-2.16;76.72
75852;BME280;64500;52.632;20.656;2022-12-18T02:55:59;101994.88;;;-2.14;76.74
75852;BME280;64500;52.632;20.656;2022-12-18T02:58:54;102002.89;;;-2.14;76.48
75852;BME280;64500;52.632;20.656;2022-12-18T03:01:31;102008.66;;;-2.12;76.72
75852;BME280;64500;52.632;20.656;2022-12-18T03:04:12;102016.69;;;-2.12;76.65
75852;BME280;64500;52.632;20.656;2022-12-18T03:06:50;102016.63;;;-2.12;76.56
75852;BME280;64500;52.632;20.656;2022-12-18T03:09:33;102020.58;;;-2.13;76.57
75852;BME280;64500;52.632;20.656;2022-12-18T03:12:31;102020.41;;;-2.13;76.55
75852;BME280;64500;52.632;20.656;2022-12-18T03:15:03;102028.06;;;-2.16;76.60
75852;BME280;64500;52.632;20.656;2022-12-18T03:17:33;102027.88;;;-2.16;76.77
75852;BME280;64500;52.632;20.656;2022-12-18T03:20:07;102030.77;;;-2.14;76.74
75852;BME280;64500;52.632;20.656;2022-12-18T03:22:38;102035.42;;;-2.14;76.53
75852;BME280;64500;52.632;20.656;2022-12-18T03:25:08;102037.48;;;-2.15;76.52
75852;BME280;64500;52.632;20.656;2022-12-18T03:27:38;102044.13;;;-2.14;76.62
75852;BME280;64500;52.632;20.656;2022-12-18T03:30:12;102042.55;;;-2.14;76.38
75852;BME280;64500;52.632;20.656;2022-12-18T03:32:46;102044.95;;;-2.11;76.68
75852;BME280;64500;52.632;20.656;2022-12-18T03:35:21;102045.42;;;-2.09;76.47
75852;BME280;64500;52.632;20.656;2022-12-18T03:37:50;102046.30;;;-2.09;76.60
75852;BME280;64500;52.632;20.656;2022-12-18T03:40:19;102051.68;;;-2.08;76.53
75852;BME280;64500;52.632;20.656;2022-12-18T03:42:48;102055.33;;;-2.09;76.24
75852;BME280;64500;52.632;20.656;2022-12-18T03:45:31;102061.66;;;-2.10;76.36
75852;BME280;64500;52.632;20.656;2022-12-18T03:48:20;102065.88;;;-2.12;76.35
75852;BME280;64500;52.632;20.656;2022-12-18T03:51:00;102064.08;;;-2.13;76.17
75852;BME280;64500;52.632;20.656;2022-12-18T03:55:57;102076.89;;;-2.13;76.48
75852;BME280;64500;52.632;20.656;2022-12-18T03:58:26;102078.11;;;-2.13;76.46
75852;BME280;64500;52.632;20.656;2022-12-18T04:00:56;102077.15;;;-2.15;76.13
75852;BME280;64500;52.632;20.656;2022-12-18T04:03:25;102081.39;;;-2.17;76.31
75852;BME280;64500;52.632;20.656;2022-12-18T04:05:55;102078.64;;;-2.16;76.18
75852;BME280;64500;52.632;20.656;2022-12-18T04:08:24;102080.20;;;-2.16;76.36
75852;BME280;64500;52.632;20.656;2022-12-18T04:10:53;102087.66;;;-2.16;76.26
75852;BME280;64500;52.632;20.656;2022-12-18T04:13:28;102094.02;;;-2.17;76.32
75852;BME280;64500;52.632;20.656;2022-12-18T04:15:56;102099.65;;;-2.18;76.07
75852;BME280;64500;52.632;20.656;2022-12-18T04:18:23;102104.33;;;-2.18;76.29
75852;BME280;64500;52.632;20.656;2022-12-18T04:20:50;102109.77;;;-2.20;76.26
75852;BME280;64500;52.632;20.656;2022-12-18T04:23:17;102107.30;;;-2.21;76.52
75852;BME280;64500;52.632;20.656;2022-12-18T04:25:46;102113.31;;;-2.22;76.37
75852;BME280;64500;52.632;20.656;2022-12-18T04:28:13;102114.49;;;-2.22;76.21
75852;BME280;64500;52.632;20.656;2022-12-18T04:30:40;102120.00;;;-2.23;76.21
75852;BME280;64500;52.632;20.656;2022-12-18T04:33:11;102123.83;;;-2.23;76.29
75852;BME280;64500;52.632;20.656;2022-12-18T04:35:41;102129.14;;;-2.24;76.36
75852;BME280;64500;52.632;20.656;2022-12-18T04:38:09;102131.71;;;-2.25;76.45
75852;BME280;64500;52.632;20.656;2022-12-18T04:40:37;102134.57;;;-2.26;76.21
75852;BME280;64500;52.632;20.656;2022-12-18T04:43:04;102142.27;;;-2.24;76.29
75852;BME280;64500;52.632;20.656;2022-12-18T04:45:32;102149.20;;;-2.25;76.30
75852;BME280;64500;52.632;20.656;2022-12-18T04:48:00;102149.42;;;-2.24;76.30
75852;BME280;64500;52.632;20.656;2022-12-18T04:50:28;102148.66;;;-2.25;76.25
75852;BME280;64500;52.632;20.656;2022-12-18T04:52:56;102152.36;;;-2.27;76.21
75852;BME280;64500;52.632;20.656;2022-12-18T04:55:23;102160.38;;;-2.29;76.17
75852;BME280;64500;52.632;20.656;2022-12-18T04:57:52;102158.48;;;-2.32;76.06
75852;BME280;64500;52.632;20.656;2022-12-18T05:00:20;102160.20;;;-2.32;76.43
75852;BME280;64500;52.632;20.656;2022-12-18T05:02:47;102163.58;;;-2.31;76.29
75852;BME280;64500;52.632;20.656;2022-12-18T05:05:14;102172.79;;;-2.30;76.27
75852;BME280;64500;52.632;20.656;2022-12-18T05:07:41;102172.83;;;-2.29;76.22
75852;BME280;64500;52.632;20.656;2022-12-18T05:10:09;102178.73;;;-2.29;76.27
75852;BME280;64500;52.632;20.656;2022-12-18T05:12:36;102179.09;;;-2.29;76.36
75852;BME280;64500;52.632;20.656;2022-12-18T05:15:27;102182.95;;;-2.28;76.41
75852;BME280;64500;52.632;20.656;2022-12-18T05:17:55;102189.12;;;-2.29;76.26
75852;BME280;64500;52.632;20.656;2022-12-18T05:20:23;102187.60;;;-2.28;76.34
75852;BME280;64500;52.632;20.656;2022-12-18T05:22:51;102192.41;;;-2.29;76.31
75852;BME280;64500;52.632;20.656;2022-12-18T05:25:18;102192.60;;;-2.29;76.16
75852;BME280;64500;52.632;20.656;2022-12-18T05:27:46;102196.73;;;-2.29;76.27
75852;BME280;64500;52.632;20.656;2022-12-18T05:30:14;102198.64;;;-2.29;76.29
75852;BME280;64500;52.632;20.656;2022-12-18T05:32:42;102199.95;;;-2.28;76.47
75852;BME280;64500;52.632;20.656;2022-12-18T05:35:10;102198.56;;;-2.27;76.28
75852;BME280;64500;52.632;20.656;2022-12-18T05:37:37;102200.80;;;-2.28;76.41
75852;BME280;64500;52.632;20.656;2022-12-18T05:40:06;102211.95;;;-2.27;76.60
75852;BME280;64500;52.632;20.656;2022-12-18T05:42:32;102212.54;;;-2.23;76.50
75852;BME280;64500;52.632;20.656;2022-12-18T05:44:59;102211.34;;;-2.19;76.57
75852;BME280;64500;52.632;20.656;2022-12-18T05:47:27;102217.52;;;-2.17;76.42
75852;BME280;64500;52.632;20.656;2022-12-18T05:49:55;102220.03;;;-2.16;76.21
75852;BME280;64500;52.632;20.656;2022-12-18T05:52:23;102225.46;;;-2.14;76.35
75852;BME280;64500;52.632;20.656;2022-12-18T05:54:50;102233.04;;;-2.15;76.34
75852;BME280;64500;52.632;20.656;2022-12-18T05:57:17;102227.98;;;-2.16;76.35
75852;BME280;64500;52.632;20.656;2022-12-18T05:59:44;102227.88;;;-2.18;76.33
75852;BME280;64500;52.632;20.656;2022-12-18T06:02:12;102225.98;;;-2.21;76.38
75852;BME280;64500;52.632;20.656;2022-12-18T06:04:38;102224.19;;;-2.22;76.23
75852;BME280;64500;52.632;20.656;2022-12-18T06:07:05;102230.30;;;-2.24;76.19
75852;BME280;64500;52.632;20.656;2022-12-18T06:09:32;102228.30;;;-2.25;75.91
75852;BME280;64500;52.632;20.656;2022-12-18T06:11:59;102234.23;;;-2.28;75.93
75852;BME280;64500;52.632;20.656;2022-12-18T06:14:27;102239.05;;;-2.31;75.72
75852;BME280;64500;52.632;20.656;2022-12-18T06:16:54;102238.20;;;-2.34;75.54
75852;BME280;64500;52.632;20.656;2022-12-18T06:19:21;102237.91;;;-2.39;75.60
75852;BME280;64500;52.632;20.656;2022-12-18T06:21:48;102246.69;;;-2.37;75.89
75852;BME280;64500;52.632;20.656;2022-12-18T06:24:16;102253.34;;;-2.33;75.94
75852;BME280;64500;52.632;20.656;2022-12-18T06:26:43;102256.14;;;-2.32;75.89
75852;BME280;64500;52.632;20.656;2022-12-18T06:29:10;102261.56;;;-2.34;76.03
75852;BME280;64500;52.632;20.656;2022-12-18T06:31:37;102260.65;;;-2.35;75.90
75852;BME280;64500;52.632;20.656;2022-12-18T06:34:04;102267.05;;;-2.35;75.88
75852;BME280;64500;52.632;20.656;2022-12-18T06:36:31;102271.81;;;-2.36;75.77
75852;BME280;64500;52.632;20.656;2022-12-18T06:38:59;102278.45;;;-2.36;75.86
75852;BME280;64500;52.632;20.656;2022-12-18T06:41:26;102287.52;;;-2.35;76.09
75852;BME280;64500;52.632;20.656;2022-12-18T06:43:53;102295.23;;;-2.33;76.15
75852;BME280;64500;52.632;20.656;2022-12-18T06:46:20;102300.28;;;-2.33;76.07
75852;BME280;64500;52.632;20.656;2022-12-18T06:48:49;102307.95;;;-2.32;76.18
75852;BME280;64500;52.632;20.656;2022-12-18T06:51:21;102304.64;;;-2.29;76.15
75852;BME280;64500;52.632;20.656;2022-12-18T06:53:49;102311.28;;;-2.25;76.03
75852;BME280;64500;52.632;20.656;2022-12-18T06:56:16;102312.35;;;-2.25;75.92
75852;BME280;64500;52.632;20.656;2022-12-18T06:58:44;102313.42;;;-2.24;76.01
75852;BME280;64500;52.632;20.656;2022-12-18T07:01:12;102312.85;;;-2.22;76.32
75852;BME280;64500;52.632;20.656;2022-12-18T07:03:40;102312.11;;;-2.23;76.11
75852;BME280;64500;52.632;20.656;2022-12-18T07:06:19;102316.63;;;-2.23;76.13
75852;BME280;64500;52.632;20.656;2022-12-18T07:08:47;102314.05;;;-2.22;76.12
75852;BME280;64500;52.632;20.656;2022-12-18T07:11:15;102309.83;;;-2.24;76.28
75852;BME280;64500;52.632;20.656;2022-12-18T07:13:43;102310.64;;;-2.25;75.99
75852;BME280;64500;52.632;20.656;2022-12-18T07:16:12;102318.06;;;-2.25;75.97
75852;BME280;64500;52.632;20.656;2022-12-18T07:18:39;102324.66;;;-2.25;76.04
75852;BME280;64500;52.632;20.656;2022-12-18T07:21:09;102328.54;;;-2.23;76.14
75852;BME280;64500;52.632;20.656;2022-12-18T07:23:37;102332.27;;;-2.22;76.11
75852;BME280;64500;52.632;20.656;2022-12-18T07:26:09;102340.79;;;-2.21;76.09
75852;BME280;64500;52.632;20.656;2022-12-18T07:28:38;102346.71;;;-2.21;75.89
75852;BME280;64500;52.632;20.656;2022-12-18T07:31:18;102357.77;;;-2.21;76.04
75852;BME280;64500;52.632;20.656;2022-12-18T07:33:45;102360.08;;;-2.23;76.03
75852;BME280;64500;52.632;20.656;2022-12-18T07:36:12;102363.52;;;-2.27;76.03
75852;BME280;64500;52.632;20.656;2022-12-18T07:38:41;102372.52;;;-2.30;76.07
75852;BME280;64500;52.632;20.656;2022-12-18T07:41:12;102378.29;;;-2.32;76.10
75852;BME280;64500;52.632;20.656;2022-12-18T07:43:40;102387.98;;;-2.31;76.15
75852;BME280;64500;52.632;20.656;2022-12-18T07:46:09;102392.20;;;-2.31;76.20
75852;BME280;64500;52.632;20.656;2022-12-18T07:48:36;102395.61;;;-2.29;76.37
75852;BME280;64500;52.632;20.656;2022-12-18T07:51:05;102404.20;;;-2.27;76.29
75852;BME280;64500;52.632;20.656;2022-12-18T07:53:34;102401.76;;;-2.27;76.16
75852;BME280;64500;52.632;20.656;2022-12-18T07:56:05;102404.92;;;-2.26;76.02
75852;BME280;64500;52.632;20.656;2022-12-18T07:58:33;102405.52;;;-2.28;75.94
75852;BME280;64500;52.632;20.656;2022-12-18T08:01:11;102406.18;;;-2.29;75.96
75852;BME280;64500;52.632;20.656;2022-12-18T08:03:39;102405.04;;;-2.28;75.90
75852;BME280;64500;52.632;20.656;2022-12-18T08:06:08;102406.81;;;-2.33;75.78
75852;BME280;64500;52.632;20.656;2022-12-18T08:08:36;102409.96;;;-2.35;75.52
75852;BME280;64500;52.632;20.656;2022-12-18T08:11:03;102411.02;;;-2.37;75.81
75852;BME280;64500;52.632;20.656;2022-12-18T08:13:30;102415.34;;;-2.38;75.93
75852;BME280;64500;52.632;20.656;2022-12-18T08:15:59;102413.04;;;-2.35;76.06
75852;BME280;64500;52.632;20.656;2022-12-18T08:18:27;102411.27;;;-2.33;76.22
75852;BME280;64500;52.632;20.656;2022-12-18T08:20:55;102406.50;;;-2.32;76.20
75852;BME280;64500;52.632;20.656;2022-12-18T08:23:22;102412.94;;;-2.32;76.01
75852;BME280;64500;52.632;20.656;2022-12-18T08:25:50;102417.97;;;-2.31;75.97
75852;BME280;64500;52.632;20.656;2022-12-18T08:28:18;102427.10;;;-2.32;76.05
75852;BME280;64500;52.632;20.656;2022-12-18T08:30:45;102431.80;;;-2.34;75.94
75852;BME280;64500;52.632;20.656;2022-12-18T08:33:12;102435.26;;;-2.40;75.47
75852;BME280;64500;52.632;20.656;2022-12-18T08:35:39;102440.48;;;-2.40;75.73
75852;BME280;64500;52.632;20.656;2022-12-18T08:38:07;102449.08;;;-2.35;76.16
75852;BME280;64500;52.632;20.656;2022-12-18T08:40:35;102453.14;;;-2.37;75.59
75852;BME280;64500;52.632;20.656;2022-12-18T08:43:02;102457.52;;;-2.36;76.07
75852;BME280;64500;52.632;20.656;2022-12-18T08:45:48;102452.83;;;-2.33;76.06
75852;BME280;64500;52.632;20.656;2022-12-18T08:48:15;102459.91;;;-2.31;76.27
75852;BME280;64500;52.632;20.656;2022-12-18T08:50:41;102460.73;;;-2.29;76.32
75852;BME280;64500;52.632;20.656;2022-12-18T08:53:09;102468.38;;;-2.26;76.42
75852;BME280;64500;52.632;20.656;2022-12-18T08:55:36;102472.58;;;-2.25;76.40
75852;BME280;64500;52.632;20.656;2022-12-18T08:58:03;102473.40;;;-2.26;76.38
75852;BME280;64500;52.632;20.656;2022-12-18T09:00:33;102473.41;;;-2.25;76.32
75852;BME280;64500;52.632;20.656;2022-12-18T09:03:00;102473.88;;;-2.24;76.13
75852;BME280;64500;52.632;20.656;2022-12-18T09:05:28;102475.38;;;-2.21;76.41
75852;BME280;64500;52.632;20.656;2022-12-18T09:07:55;102480.33;;;-2.23;76.49
75852;BME280;64500;52.632;20.656;2022-12-18T09:10:23;102479.09;;;-2.20;76.24
75852;BME280;64500;52.632;20.656;2022-12-18T09:12:50;102478.04;;;-2.18;76.22
75852;BME280;64500;52.632;20.656;2022-12-18T09:15:17;102489.02;;;-2.14;76.53
75852;BME280;64500;52.632;20.656;2022-12-18T09:17:45;102481.21;;;-2.11;76.33
75852;BME280;64500;52.632;20.656;2022-12-18T09:20:12;102475.66;;;-2.09;76.13
75852;BME280;64500;52.632;20.656;2022-12-18T09:22:39;102480.69;;;-2.06;76.38
75852;BME280;64500;52.632;20.656;2022-12-18T09:25:06;102480.54;;;-2.05;76.36
75852;BME280;64500;52.632;20.656;2022-12-18T09:27:37;102476.59;;;-2.05;76.37
75852;BME280;64500;52.632;20.656;2022-12-18T09:30:04;102478.23;;;-2.06;76.04
75852;BME280;64500;52.632;20.656;2022-12-18T09:32:32;102480.99;;;-2.06;76.30
75852;BME280;64500;52.632;20.656;2022-12-18T09:34:59;102485.14;;;-2.07;76.38
75852;BME280;64500;52.632;20.656;2022-12-18T09:37:26;102482.95;;;-2.06;76.54
75852;BME280;64500;52.632;20.656;2022-12-18T09:39:54;102480.85;;;-2.06;76.53
75852;BME280;64500;52.632;20.656;2022-12-18T09:42:22;102487.52;;;-2.07;76.33
75852;BME280;64500;52.632;20.656;2022-12-18T09:44:52;102493.75;;;-2.08;76.33
75852;BME280;64500;52.632;20.656;2022-12-18T09:49:55;102496.20;;;-2.07;76.06
75852;BME280;64500;52.632;20.656;2022-12-18T09:57:57;102507.14;;;-2.04;76.20
75852;BME280;64500;52.632;20.656;2022-12-18T10:00:25;102500.23;;;-2.01;76.22
75852;BME280;64500;52.632;20.656;2022-12-18T10:02:58;102504.23;;;-2.00;76.14
75852;BME280;64500;52.632;20.656;2022-12-18T10:05:35;102498.46;;;-2.02;76.01
75852;BME280;64500;52.632;20.656;2022-12-18T10:08:13;102497.36;;;-2.02;76.20
75852;BME280;64500;52.632;20.656;2022-12-18T10:11:01;102495.88;;;-2.04;75.94
75852;BME280;64500;52.632;20.656;2022-12-18T10:21:05;102493.41;;;-2.08;76.16
75852;BME280;64500;52.632;20.656;2022-12-18T10:23:39;102493.55;;;-2.08;76.19
75852;BME280;64500;52.632;20.656;2022-12-18T10:26:11;102495.87;;;-2.07;76.40
75852;BME280;64500;52.632;20.656;2022-12-18T10:28:42;102492.15;;;-2.06;76.34
75852;BME280;64500;52.632;20.656;2022-12-18T10:31:22;102492.02;;;-2.01;76.42
75852;BME280;64500;52.632;20.656;2022-12-18T10:33:49;102496.77;;;-1.97;76.24
75852;BME280;64500;52.632;20.656;2022-12-18T10:36:16;102500.88;;;-1.95;76.22
75852;BME280;64500;52.632;20.656;2022-12-18T10:38:44;102504.44;;;-1.91;76.39
75852;BME280;64500;52.632;20.656;2022-12-18T10:44:19;102506.48;;;-1.86;76.38
75852;BME280;64500;52.632;20.656;2022-12-18T10:46:54;102505.80;;;-1.86;76.17
75852;BME280;64500;52.632;20.656;2022-12-18T10:49:31;102501.48;;;-1.85;76.41
75852;BME280;64500;52.632;20.656;2022-12-18T10:52:19;102493.70;;;-1.85;76.63
75852;BME280;64500;52.632;20.656;2022-12-18T10:54:53;102491.78;;;-1.85;76.62
75852;BME280;64500;52.632;20.656;2022-12-18T10:57:33;102490.36;;;-1.86;76.44
75852;BME280;64500;52.632;20.656;2022-12-18T11:00:26;102487.98;;;-1.85;76.43
75852;BME280;64500;52.632;20.656;2022-12-18T11:02:54;102486.14;;;-1.84;76.36
75852;BME280;64500;52.632;20.656;2022-12-18T11:05:33;102486.74;;;-1.83;76.64
75852;BME280;64500;52.632;20.656;2022-12-18T11:08:00;102488.04;;;-1.81;76.61
75852;BME280;64500;52.632;20.656;2022-12-18T11:10:32;102490.11;;;-1.79;76.86
75852;BME280;64500;52.632;20.656;2022-12-18T11:13:21;102494.39;;;-1.76;76.49
75852;BME280;64500;52.632;20.656;2022-12-18T11:15:49;102497.09;;;-1.75;76.57
75852;BME280;64500;52.632;20.656;2022-12-18T11:20:56;102491.21;;;-1.69;76.76
75852;BME280;64500;52.632;20.656;2022-12-18T11:23:25;102481.91;;;-1.68;76.81
75852;BME280;64500;52.632;20.656;2022-12-18T11:25:55;102481.00;;;-1.66;76.57
75852;BME280;64500;52.632;20.656;2022-12-18T11:28:29;102476.83;;;-1.63;76.72
75852;BME280;64500;52.632;20.656;2022-12-18T11:31:21;102485.99;;;-1.60;76.65
75852;BME280;64500;52.632;20.656;2022-12-18T11:34:11;102491.91;;;-1.60;76.50
75852;BME280;64500;52.632;20.656;2022-12-18T11:36:45;102499.80;;;-1.62;76.57
75852;BME280;64500;52.632;20.656;2022-12-18T11:39:59;102490.94;;;-1.62;76.74
75852;BME280;64500;52.632;20.656;2022-12-18T11:42:37;102489.30;;;-1.63;76.46
75852;BME280;64500;52.632;20.656;2022-12-18T11:47:49;102493.04;;;-1.64;76.44
75852;BME280;64500;52.632;20.656;2022-12-18T11:50:24;102495.67;;;-1.64;76.69
75852;BME280;64500;52.632;20.656;2022-12-18T11:52:52;102492.48;;;-1.62;76.76
75852;BME280;64500;52.632;20.656;2022-12-18T11:56:36;102495.33;;;-1.61;76.60
75852;BME280;64500;52.632;20.656;2022-12-18T11:58:47;102494.58;;;-1.59;76.65
75852;BME280;64500;52.632;20.656;2022-12-18T12:07:25;102490.94;;;-1.56;76.79
75852;BME280;64500;52.632;20.656;2022-12-18T12:10:05;102491.57;;;-1.54;76.90
75852;BME280;64500;52.632;20.656;2022-12-18T12:21:23;102530.13;;;-1.52;77.02
75852;BME280;64500;52.632;20.656;2022-12-18T12:26:56;102533.55;;;-1.54;77.03
75852;BME280;64500;52.632;20.656;2022-12-18T12:32:31;102537.80;;;-1.52;77.04
75852;BME280;64500;52.632;20.656;2022-12-18T12:38:07;102546.03;;;-1.48;76.89
75852;BME280;64500;52.632;20.656;2022-12-18T12:40:48;102544.71;;;-1.46;76.82
75852;BME280;64500;52.632;20.656;2022-12-18T12:46:07;102558.81;;;-1.43;77.20
75852;BME280;64500;52.632;20.656;2022-12-18T12:48:56;102561.18;;;-1.41;77.26
75852;BME280;64500;52.632;20.656;2022-12-18T12:51:31;102560.39;;;-1.40;77.21
75852;BME280;64500;52.632;20.656;2022-12-18T12:54:02;102564.10;;;-1.39;77.06
75852;BME280;64500;52.632;20.656;2022-12-18T12:56:39;102573.39;;;-1.37;76.93
75852;BME280;64500;52.632;20.656;2022-12-18T12:59:18;102580.29;;;-1.35;77.10
75852;BME280;64500;52.632;20.656;2022-12-18T13:04:59;102588.45;;;-1.35;76.96
75852;BME280;64500;52.632;20.656;2022-12-18T13:10:12;102590.88;;;-1.43;76.63
75852;BME280;64500;52.632;20.656;2022-12-18T13:18:13;102620.35;;;-1.49;76.46
75852;BME280;64500;52.632;20.656;2022-12-18T13:21:13;102625.75;;;-1.52;76.70
75852;BME280;64500;52.632;20.656;2022-12-18T13:23:35;102624.59;;;-1.54;76.66
75852;BME280;64500;52.632;20.656;2022-12-18T13:31:01;102624.91;;;-1.51;76.68
75852;BME280;64500;52.632;20.656;2022-12-18T13:41:41;102618.19;;;-1.45;76.80
75852;BME280;64500;52.632;20.656;2022-12-18T13:46:49;102621.13;;;-1.42;76.58
75852;BME280;64500;52.632;20.656;2022-12-18T13:49:20;102617.45;;;-1.43;76.84
75852;BME280;64500;52.632;20.656;2022-12-18T13:51:55;102611.70;;;-1.43;76.57
75852;BME280;64500;52.632;20.656;2022-12-18T13:55:16;102611.36;;;-1.43;76.55
75852;BME280;64500;52.632;20.656;2022-12-18T13:57:34;102605.17;;;-1.45;76.65
75852;BME280;64500;52.632;20.656;2022-12-18T14:00:30;102610.00;;;-1.51;76.19
75852;BME280;64500;52.632;20.656;2022-12-18T14:02:58;102610.65;;;-1.58;75.79
75852;BME280;64500;52.632;20.656;2022-12-18T14:05:36;102611.16;;;-1.58;76.31
75852;BME280;64500;52.632;20.656;2022-12-18T14:08:14;102614.94;;;-1.59;76.25
75852;BME280;64500;52.632;20.656;2022-12-18T14:10:45;102611.30;;;-1.62;76.22
75852;BME280;64500;52.632;20.656;2022-12-18T14:13:27;102620.05;;;-1.61;76.25
75852;BME280;64500;52.632;20.656;2022-12-18T14:15:55;102618.08;;;-1.59;76.38
75852;BME280;64500;52.632;20.656;2022-12-18T14:18:25;102617.35;;;-1.56;76.67
75852;BME280;64500;52.632;20.656;2022-12-18T14:20:56;102617.77;;;-1.58;76.30
75852;BME280;64500;52.632;20.656;2022-12-18T14:23:41;102619.49;;;-1.64;76.02
75852;BME280;64500;52.632;20.656;2022-12-18T14:26:28;102624.83;;;-1.67;75.60
75852;BME280;64500;52.632;20.656;2022-12-18T14:28:57;102630.45;;;-1.75;76.03
75852;BME280;64500;52.632;20.656;2022-12-18T14:31:26;102638.58;;;-1.75;76.12
75852;BME280;64500;52.632;20.656;2022-12-18T14:33:54;102646.47;;;-1.73;76.00
75852;BME280;64500;52.632;20.656;2022-12-18T14:36:27;102648.54;;;-1.73;75.88
75852;BME280;64500;52.632;20.656;2022-12-18T14:38:57;102650.31;;;-1.73;76.06
75852;BME280;64500;52.632;20.656;2022-12-18T14:41:25;102650.45;;;-1.71;76.20
75852;BME280;64500;52.632;20.656;2022-12-18T14:43:54;102662.42;;;-1.70;76.12